sensor_id;sensor_type;location;lat;lon;timestamp;temperature;humidity
10492;DHT22;5293;51.464;-2.566;2023-02-17T00:01:15;10.90;99.90
10492;DHT22;5293;51.464;-2.566;2023-02-17T00:03:41;10.80;99.90
10492;DHT22;5293;51.464;-2.566;2023-02-17T00:06:10;10.90;99.90
10492;DHT22;5293;51.464;-2.566;2023-02-17T00:08:36;10.80;99.90
10492;DHT22;5293;51.464;-2.566;2023-02-17T00:11:02;10.80;99.90
10492;DHT22;5293;51.464;-2.566;2023-02-17T00:13:28;10.80;99.90
10492;DHT22;5293;51.464;-2.566;2023-02-17T00:15:57;10.80;99.90
10492;DHT22;5293;51.464;-2.566;2023-02-17T00:18:23;10.80;99.90
10492;DHT22;5293;51.464;-2.566;2023-02-17T00:20:48;10.80;99.90
10492;DHT22;5293;51.464;-2.566;2023-02-17T00:23:14;10.90;99.90
10492;DHT22;5293;51.464;-2.566;2023-02-17T00:25:40;10.90;99.90
10492;DHT22;5293;51.464;-2.566;2023-02-17T00:28:05;10.90;99.90
10492;DHT22;5293;51.464;-2.566;2023-02-17T00:30:31;10.90;99.90
10492;DHT22;5293;51.464;-2.566;2023-02-17T00:32:58;10.90;99.90
10492;DHT22;5293;51.464;-2.566;2023-02-17T00:35:24;10.90;99.90
10492;DHT22;5293;51.464;-2.566;2023-02-17T00:37:50;10.90;99.90
10492;DHT22;5293;51.464;-2.566;2023-02-17T00:40:15;11.00;99.90
10492;DHT22;5293;51.464;-2.566;2023-02-17T00:42:41;11.00;99.90
10492;DHT22;5293;51.464;-2.566;2023-02-17T00:45:07;10.90;99.90
10492;DHT22;5293;51.464;-2.566;2023-02-17T00:47:33;10.90;99.90
10492;DHT22;5293;51.464;-2.566;2023-02-17T00:49:59;10.90;99.90
10492;DHT22;5293;51.464;-2.566;2023-02-17T00:52:24;10.90;99.90
10492;DHT22;5293;51.464;-2.566;2023-02-17T00:54:50;10.90;99.90
10492;DHT22;5293;51.464;-2.566;2023-02-17T00:57:16;10.90;99.90
10492;DHT22;5293;51.464;-2.566;2023-02-17T00:59:41;10.80;99.90
10492;DHT22;5293;51.464;-2.566;2023-02-17T01:02:07;10.80;99.90
10492;DHT22;5293;51.464;-2.566;2023-02-17T01:04:33;10.80;99.90
10492;DHT22;5293;51.464;-2.566;2023-02-17T01:06:58;10.70;99.90
10492;DHT22;5293;51.464;-2.566;2023-02-17T01:09:24;10.70;99.90
10492;DHT22;5293;51.464;-2.566;2023-02-17T01:11:50;10.80;99.90
10492;DHT22;5293;51.464;-2.566;2023-02-17T01:14:16;10.80;99.90
10492;DHT22;5293;51.464;-2.566;2023-02-17T01:16:46;10.80;99.90
10492;DHT22;5293;51.464;-2.566;2023-02-17T01:19:14;10.90;99.90
10492;DHT22;5293;51.464;-2.566;2023-02-17T01:21:40;10.80;99.90
10492;DHT22;5293;51.464;-2.566;2023-02-17T01:24:07;10.80;99.90
10492;DHT22;5293;51.464;-2.566;2023-02-17T01:26:34;10.80;99.90
10492;DHT22;5293;51.464;-2.566;2023-02-17T01:29:01;10.70;99.90
10492;DHT22;5293;51.464;-2.566;2023-02-17T01:31:27;10.70;99.90
10492;DHT22;5293;51.464;-2.566;2023-02-17T01:33:58;10.70;99.90
10492;DHT22;5293;51.464;-2.566;2023-02-17T01:36:24;10.70;99.90
10492;DHT22;5293;51.464;-2.566;2023-02-17T01:38:50;10.70;99.90
10492;DHT22;5293;51.464;-2.566;2023-02-17T01:41:18;10.70;99.90
10492;DHT22;5293;51.464;-2.566;2023-02-17T01:46:31;10.80;99.90
10492;DHT22;5293;51.464;-2.566;2023-02-17T01:48:57;10.70;99.90
10492;DHT22;5293;51.464;-2.566;2023-02-17T01:51:27;10.70;99.90
10492;DHT22;5293;51.464;-2.566;2023-02-17T01:54:15;10.70;99.90
10492;DHT22;5293;51.464;-2.566;2023-02-17T01:56:43;10.60;99.90
10492;DHT22;5293;51.464;-2.566;2023-02-17T01:59:17;10.70;99.90
10492;DHT22;5293;51.464;-2.566;2023-02-17T02:01:45;10.70;99.90
10492;DHT22;5293;51.464;-2.566;2023-02-17T02:04:11;10.60;99.90
10492;DHT22;5293;51.464;-2.566;2023-02-17T02:06:38;10.70;99.90
10492;DHT22;5293;51.464;-2.566;2023-02-17T02:09:35;10.60;99.90
10492;DHT22;5293;51.464;-2.566;2023-02-17T02:12:01;10.60;99.90
10492;DHT22;5293;51.464;-2.566;2023-02-17T02:14:27;10.60;99.90
10492;DHT22;5293;51.464;-2.566;2023-02-17T02:17:00;10.60;99.90
10492;DHT22;5293;51.464;-2.566;2023-02-17T02:33:41;10.50;99.90
10492;DHT22;5293;51.464;-2.566;2023-02-17T02:36:38;10.50;99.90
10492;DHT22;5293;51.464;-2.566;2023-02-17T02:39:22;10.50;99.90
10492;DHT22;5293;51.464;-2.566;2023-02-17T02:41:52;10.50;99.90
10492;DHT22;5293;51.464;-2.566;2023-02-17T02:44:20;10.40;99.90
10492;DHT22;5293;51.464;-2.566;2023-02-17T02:46:56;10.50;99.90
10492;DHT22;5293;51.464;-2.566;2023-02-17T02:49:22;10.50;99.90
10492;DHT22;5293;51.464;-2.566;2023-02-17T02:51:56;10.50;99.90
10492;DHT22;5293;51.464;-2.566;2023-02-17T02:57:19;10.50;99.90
10492;DHT22;5293;51.464;-2.566;2023-02-17T02:59:56;10.50;99.90
10492;DHT22;5293;51.464;-2.566;2023-02-17T03:07:33;10.40;99.90
10492;DHT22;5293;51.464;-2.566;2023-02-17T03:09:59;10.40;99.90
10492;DHT22;5293;51.464;-2.566;2023-02-17T03:12:26;10.40;99.90
10492;DHT22;5293;51.464;-2.566;2023-02-17T03:14:57;10.40;99.90
10492;DHT22;5293;51.464;-2.566;2023-02-17T03:17:24;10.40;99.90
10492;DHT22;5293;51.464;-2.566;2023-02-17T03:19:50;10.40;99.90
10492;DHT22;5293;51.464;-2.566;2023-02-17T03:22:22;10.40;99.90
10492;DHT22;5293;51.464;-2.566;2023-02-17T03:24:49;10.50;99.90
10492;DHT22;5293;51.464;-2.566;2023-02-17T03:27:15;10.50;99.90
10492;DHT22;5293;51.464;-2.566;2023-02-17T03:29:41;10.50;99.90
10492;DHT22;5293;51.464;-2.566;2023-02-17T03:32:07;10.50;99.90
10492;DHT22;5293;51.464;-2.566;2023-02-17T03:34:33;10.50;99.90
10492;DHT22;5293;51.464;-2.566;2023-02-17T03:36:58;10.50;99.90
10492;DHT22;5293;51.464;-2.566;2023-02-17T03:39:24;10.50;99.90
10492;DHT22;5293;51.464;-2.566;2023-02-17T03:41:50;10.50;99.90
10492;DHT22;5293;51.464;-2.566;2023-02-17T03:44:17;10.50;99.90
10492;DHT22;5293;51.464;-2.566;2023-02-17T03:46:44;10.50;99.90
10492;DHT22;5293;51.464;-2.566;2023-02-17T03:49:10;10.40;99.90
10492;DHT22;5293;51.464;-2.566;2023-02-17T03:51:35;10.40;99.90
10492;DHT22;5293;51.464;-2.566;2023-02-17T03:54:01;10.40;99.90
10492;DHT22;5293;51.464;-2.566;2023-02-17T03:56:27;10.40;99.90
10492;DHT22;5293;51.464;-2.566;2023-02-17T03:58:52;10.50;99.90
10492;DHT22;5293;51.464;-2.566;2023-02-17T04:01:18;10.50;99.90
10492;DHT22;5293;51.464;-2.566;2023-02-17T04:03:44;10.50;99.90
10492;DHT22;5293;51.464;-2.566;2023-02-17T04:06:09;10.50;99.90
10492;DHT22;5293;51.464;-2.566;2023-02-17T04:08:36;10.50;99.90
10492;DHT22;5293;51.464;-2.566;2023-02-17T04:11:03;10.60;99.90
10492;DHT22;5293;51.464;-2.566;2023-02-17T04:13:30;10.50;99.90
10492;DHT22;5293;51.464;-2.566;2023-02-17T04:15:55;10.60;99.90
10492;DHT22;5293;51.464;-2.566;2023-02-17T04:18:21;10.60;99.90
10492;DHT22;5293;51.464;-2.566;2023-02-17T04:20:48;10.60;99.90
10492;DHT22;5293;51.464;-2.566;2023-02-17T04:23:15;10.60;99.90
10492;DHT22;5293;51.464;-2.566;2023-02-17T04:25:41;10.50;99.90
10492;DHT22;5293;51.464;-2.566;2023-02-17T04:28:07;10.50;99.90
10492;DHT22;5293;51.464;-2.566;2023-02-17T04:30:33;10.50;99.90
10492;DHT22;5293;51.464;-2.566;2023-02-17T04:33:00;10.50;99.90
10492;DHT22;5293;51.464;-2.566;2023-02-17T04:35:26;10.50;99.90
10492;DHT22;5293;51.464;-2.566;2023-02-17T04:37:52;10.50;99.90
10492;DHT22;5293;51.464;-2.566;2023-02-17T04:40:18;10.60;99.90
10492;DHT22;5293;51.464;-2.566;2023-02-17T04:42:44;10.60;99.90
10492;DHT22;5293;51.464;-2.566;2023-02-17T04:45:10;10.60;99.90
10492;DHT22;5293;51.464;-2.566;2023-02-17T04:47:36;10.60;99.90
10492;DHT22;5293;51.464;-2.566;2023-02-17T04:50:02;10.60;99.90
10492;DHT22;5293;51.464;-2.566;2023-02-17T04:52:28;10.60;99.90
10492;DHT22;5293;51.464;-2.566;2023-02-17T04:54:54;10.60;99.90
10492;DHT22;5293;51.464;-2.566;2023-02-17T04:57:19;10.60;99.90
10492;DHT22;5293;51.464;-2.566;2023-02-17T04:59:45;10.60;99.90
10492;DHT22;5293;51.464;-2.566;2023-02-17T05:02:10;10.70;99.90
10492;DHT22;5293;51.464;-2.566;2023-02-17T05:04:36;10.70;99.90
10492;DHT22;5293;51.464;-2.566;2023-02-17T05:07:02;10.70;99.90
10492;DHT22;5293;51.464;-2.566;2023-02-17T05:09:28;10.80;99.90
10492;DHT22;5293;51.464;-2.566;2023-02-17T05:11:53;10.80;99.90
10492;DHT22;5293;51.464;-2.566;2023-02-17T05:14:19;10.90;99.90
10492;DHT22;5293;51.464;-2.566;2023-02-17T05:16:45;10.80;99.90
10492;DHT22;5293;51.464;-2.566;2023-02-17T05:19:10;10.90;99.90
10492;DHT22;5293;51.464;-2.566;2023-02-17T05:21:37;10.90;99.90
10492;DHT22;5293;51.464;-2.566;2023-02-17T05:24:03;10.90;99.90
10492;DHT22;5293;51.464;-2.566;2023-02-17T05:26:29;10.90;99.90
10492;DHT22;5293;51.464;-2.566;2023-02-17T05:28:54;10.90;99.90
10492;DHT22;5293;51.464;-2.566;2023-02-17T05:31:20;10.90;99.90
10492;DHT22;5293;51.464;-2.566;2023-02-17T05:33:46;11.00;99.90
10492;DHT22;5293;51.464;-2.566;2023-02-17T05:36:11;10.90;99.90
10492;DHT22;5293;51.464;-2.566;2023-02-17T05:38:38;10.90;99.90
10492;DHT22;5293;51.464;-2.566;2023-02-17T05:41:05;11.00;99.90
10492;DHT22;5293;51.464;-2.566;2023-02-17T05:43:31;11.00;99.90
10492;DHT22;5293;51.464;-2.566;2023-02-17T05:46:01;11.10;99.90
10492;DHT22;5293;51.464;-2.566;2023-02-17T05:48:27;11.10;99.90
10492;DHT22;5293;51.464;-2.566;2023-02-17T05:50:53;11.10;99.90
10492;DHT22;5293;51.464;-2.566;2023-02-17T05:53:18;11.10;99.90
10492;DHT22;5293;51.464;-2.566;2023-02-17T05:55:44;11.00;99.90
10492;DHT22;5293;51.464;-2.566;2023-02-17T05:58:09;11.00;99.90
10492;DHT22;5293;51.464;-2.566;2023-02-17T06:00:35;11.00;99.90
10492;DHT22;5293;51.464;-2.566;2023-02-17T06:03:01;11.00;99.90
10492;DHT22;5293;51.464;-2.566;2023-02-17T06:05:27;11.00;99.90
10492;DHT22;5293;51.464;-2.566;2023-02-17T06:07:52;11.10;99.90
10492;DHT22;5293;51.464;-2.566;2023-02-17T06:10:18;11.00;99.90
10492;DHT22;5293;51.464;-2.566;2023-02-17T06:12:44;11.10;99.90
10492;DHT22;5293;51.464;-2.566;2023-02-17T06:15:10;11.10;99.90
10492;DHT22;5293;51.464;-2.566;2023-02-17T06:17:35;11.00;99.90
10492;DHT22;5293;51.464;-2.566;2023-02-17T06:20:02;11.10;99.90
10492;DHT22;5293;51.464;-2.566;2023-02-17T06:22:27;11.00;99.90
10492;DHT22;5293;51.464;-2.566;2023-02-17T06:24:53;11.00;99.90
10492;DHT22;5293;51.464;-2.566;2023-02-17T06:27:19;11.00;99.90
10492;DHT22;5293;51.464;-2.566;2023-02-17T06:29:44;11.00;99.90
10492;DHT22;5293;51.464;-2.566;2023-02-17T06:32:10;11.10;99.90
10492;DHT22;5293;51.464;-2.566;2023-02-17T06:34:36;11.10;99.90
10492;DHT22;5293;51.464;-2.566;2023-02-17T06:37:01;11.10;99.90
10492;DHT22;5293;51.464;-2.566;2023-02-17T06:39:27;11.00;99.90
10492;DHT22;5293;51.464;-2.566;2023-02-17T06:41:52;11.10;99.90
10492;DHT22;5293;51.464;-2.566;2023-02-17T06:44:18;11.10;99.90
10492;DHT22;5293;51.464;-2.566;2023-02-17T06:46:44;11.10;99.90
10492;DHT22;5293;51.464;-2.566;2023-02-17T06:49:12;11.10;99.90
10492;DHT22;5293;51.464;-2.566;2023-02-17T06:51:40;11.10;99.90
10492;DHT22;5293;51.464;-2.566;2023-02-17T06:54:06;11.10;99.90
10492;DHT22;5293;51.464;-2.566;2023-02-17T06:56:31;11.10;99.90
10492;DHT22;5293;51.464;-2.566;2023-02-17T06:58:57;11.10;99.90
10492;DHT22;5293;51.464;-2.566;2023-02-17T07:01:25;11.10;99.90
10492;DHT22;5293;51.464;-2.566;2023-02-17T07:03:52;11.10;99.90
10492;DHT22;5293;51.464;-2.566;2023-02-17T07:06:18;11.10;99.90
10492;DHT22;5293;51.464;-2.566;2023-02-17T07:08:44;11.00;99.90
10492;DHT22;5293;51.464;-2.566;2023-02-17T07:11:11;11.00;99.90
10492;DHT22;5293;51.464;-2.566;2023-02-17T07:13:37;11.00;99.90
10492;DHT22;5293;51.464;-2.566;2023-02-17T07:16:06;11.00;99.90
10492;DHT22;5293;51.464;-2.566;2023-02-17T07:18:32;10.90;99.90
10492;DHT22;5293;51.464;-2.566;2023-02-17T07:20:58;10.90;99.90
10492;DHT22;5293;51.464;-2.566;2023-02-17T07:23:24;11.00;99.90
10492;DHT22;5293;51.464;-2.566;2023-02-17T07:25:50;11.00;99.90
10492;DHT22;5293;51.464;-2.566;2023-02-17T07:28:15;11.00;99.90
10492;DHT22;5293;51.464;-2.566;2023-02-17T07:30:42;11.00;99.90
10492;DHT22;5293;51.464;-2.566;2023-02-17T07:33:10;11.00;99.90
10492;DHT22;5293;51.464;-2.566;2023-02-17T07:35:42;11.10;99.90
10492;DHT22;5293;51.464;-2.566;2023-02-17T07:38:11;11.10;99.90
10492;DHT22;5293;51.464;-2.566;2023-02-17T07:40:37;11.10;99.90
10492;DHT22;5293;51.464;-2.566;2023-02-17T07:43:03;11.10;99.90
10492;DHT22;5293;51.464;-2.566;2023-02-17T07:45:29;11.10;99.90
10492;DHT22;5293;51.464;-2.566;2023-02-17T07:47:54;11.10;99.90
10492;DHT22;5293;51.464;-2.566;2023-02-17T07:50:21;11.10;99.90
10492;DHT22;5293;51.464;-2.566;2023-02-17T07:52:46;11.10;99.90
10492;DHT22;5293;51.464;-2.566;2023-02-17T07:55:12;11.10;99.90
10492;DHT22;5293;51.464;-2.566;2023-02-17T07:57:38;11.00;99.90
10492;DHT22;5293;51.464;-2.566;2023-02-17T08:00:05;11.10;99.90
10492;DHT22;5293;51.464;-2.566;2023-02-17T08:02:31;11.00;99.90
10492;DHT22;5293;51.464;-2.566;2023-02-17T08:04:56;11.10;99.90
10492;DHT22;5293;51.464;-2.566;2023-02-17T08:07:22;11.10;99.90
10492;DHT22;5293;51.464;-2.566;2023-02-17T08:09:47;11.10;99.90
10492;DHT22;5293;51.464;-2.566;2023-02-17T08:12:32;11.00;99.90
10492;DHT22;5293;51.464;-2.566;2023-02-17T08:15:16;11.10;99.90
10492;DHT22;5293;51.464;-2.566;2023-02-17T08:17:42;11.10;99.90
10492;DHT22;5293;51.464;-2.566;2023-02-17T08:20:09;11.00;99.90
10492;DHT22;5293;51.464;-2.566;2023-02-17T08:22:35;11.00;99.90
10492;DHT22;5293;51.464;-2.566;2023-02-17T08:25:01;11.00;99.90
10492;DHT22;5293;51.464;-2.566;2023-02-17T08:27:27;11.10;99.90
10492;DHT22;5293;51.464;-2.566;2023-02-17T08:29:52;11.10;99.90
10492;DHT22;5293;51.464;-2.566;2023-02-17T08:32:18;11.10;99.90
10492;DHT22;5293;51.464;-2.566;2023-02-17T08:34:44;11.10;99.90
10492;DHT22;5293;51.464;-2.566;2023-02-17T08:37:10;11.20;99.90
10492;DHT22;5293;51.464;-2.566;2023-02-17T08:39:36;11.20;99.90
10492;DHT22;5293;51.464;-2.566;2023-02-17T08:42:03;11.10;99.90
10492;DHT22;5293;51.464;-2.566;2023-02-17T08:44:29;11.20;99.90
10492;DHT22;5293;51.464;-2.566;2023-02-17T08:46:55;11.20;99.90
10492;DHT22;5293;51.464;-2.566;2023-02-17T08:49:23;11.20;99.90
10492;DHT22;5293;51.464;-2.566;2023-02-17T08:51:50;11.30;99.90
10492;DHT22;5293;51.464;-2.566;2023-02-17T08:54:16;11.30;99.90
10492;DHT22;5293;51.464;-2.566;2023-02-17T08:56:42;11.40;99.90
10492;DHT22;5293;51.464;-2.566;2023-02-17T08:59:10;11.40;99.90
10492;DHT22;5293;51.464;-2.566;2023-02-17T09:01:37;11.50;99.90
10492;DHT22;5293;51.464;-2.566;2023-02-17T09:04:05;11.50;99.90
10492;DHT22;5293;51.464;-2.566;2023-02-17T09:08:58;11.50;99.90
10492;DHT22;5293;51.464;-2.566;2023-02-17T09:11:24;11.50;99.90
10492;DHT22;5293;51.464;-2.566;2023-02-17T09:13:50;11.60;99.90
10492;DHT22;5293;51.464;-2.566;2023-02-17T09:16:16;11.70;99.90
10492;DHT22;5293;51.464;-2.566;2023-02-17T09:18:45;11.60;99.90
10492;DHT22;5293;51.464;-2.566;2023-02-17T09:21:12;11.60;99.90
10492;DHT22;5293;51.464;-2.566;2023-02-17T09:23:39;11.60;99.90
10492;DHT22;5293;51.464;-2.566;2023-02-17T09:26:07;11.60;99.90
10492;DHT22;5293;51.464;-2.566;2023-02-17T09:28:33;11.70;99.90
10492;DHT22;5293;51.464;-2.566;2023-02-17T09:31:06;11.70;99.90
10492;DHT22;5293;51.464;-2.566;2023-02-17T09:33:32;11.70;99.90
10492;DHT22;5293;51.464;-2.566;2023-02-17T09:35:58;11.70;99.90
10492;DHT22;5293;51.464;-2.566;2023-02-17T09:38:24;11.80;99.90
10492;DHT22;5293;51.464;-2.566;2023-02-17T09:40:50;11.70;99.90
10492;DHT22;5293;51.464;-2.566;2023-02-17T09:43:24;11.80;99.90
10492;DHT22;5293;51.464;-2.566;2023-02-17T09:45:54;11.80;99.90
10492;DHT22;5293;51.464;-2.566;2023-02-17T09:48:25;11.90;99.90
10492;DHT22;5293;51.464;-2.566;2023-02-17T09:50:55;11.90;99.90
10492;DHT22;5293;51.464;-2.566;2023-02-17T09:53:40;11.80;99.90
10492;DHT22;5293;51.464;-2.566;2023-02-17T09:56:10;11.80;99.90
10492;DHT22;5293;51.464;-2.566;2023-02-17T09:59:04;11.90;99.90
10492;DHT22;5293;51.464;-2.566;2023-02-17T10:01:32;12.00;99.90
10492;DHT22;5293;51.464;-2.566;2023-02-17T10:06:32;12.00;99.90
10492;DHT22;5293;51.464;-2.566;2023-02-17T10:09:15;12.10;99.90
10492;DHT22;5293;51.464;-2.566;2023-02-17T10:11:50;12.10;99.90
10492;DHT22;5293;51.464;-2.566;2023-02-17T10:14:21;12.10;99.90
10492;DHT22;5293;51.464;-2.566;2023-02-17T10:16:56;12.00;99.90
10492;DHT22;5293;51.464;-2.566;2023-02-17T10:19:33;12.00;99.90
10492;DHT22;5293;51.464;-2.566;2023-02-17T10:22:14;12.10;99.90
10492;DHT22;5293;51.464;-2.566;2023-02-17T10:24:40;12.10;99.90
10492;DHT22;5293;51.464;-2.566;2023-02-17T10:32:28;12.20;99.90
10492;DHT22;5293;51.464;-2.566;2023-02-17T10:35:17;12.20;99.90
10492;DHT22;5293;51.464;-2.566;2023-02-17T10:38:02;12.20;99.90
10492;DHT22;5293;51.464;-2.566;2023-02-17T10:40:30;12.20;99.90
10492;DHT22;5293;51.464;-2.566;2023-02-17T10:43:00;12.20;99.90
10492;DHT22;5293;51.464;-2.566;2023-02-17T10:45:42;12.10;99.90
10492;DHT22;5293;51.464;-2.566;2023-02-17T10:48:14;12.20;99.90
10492;DHT22;5293;51.464;-2.566;2023-02-17T10:50:41;12.20;99.90
10492;DHT22;5293;51.464;-2.566;2023-02-17T10:53:22;12.30;99.90
10492;DHT22;5293;51.464;-2.566;2023-02-17T10:58:26;12.40;99.90
10492;DHT22;5293;51.464;-2.566;2023-02-17T11:00:54;12.50;99.90
10492;DHT22;5293;51.464;-2.566;2023-02-17T11:03:29;12.50;99.90
10492;DHT22;5293;51.464;-2.566;2023-02-17T11:05:59;12.50;99.90
10492;DHT22;5293;51.464;-2.566;2023-02-17T11:08:33;12.50;99.90
10492;DHT22;5293;51.464;-2.566;2023-02-17T11:11:26;12.50;99.90
10492;DHT22;5293;51.464;-2.566;2023-02-17T11:16:55;12.60;99.90
10492;DHT22;5293;51.464;-2.566;2023-02-17T11:19:30;12.60;99.90
10492;DHT22;5293;51.464;-2.566;2023-02-17T11:21:59;12.60;99.90
10492;DHT22;5293;51.464;-2.566;2023-02-17T11:24:27;12.60;99.90
10492;DHT22;5293;51.464;-2.566;2023-02-17T11:26:58;12.70;99.90
10492;DHT22;5293;51.464;-2.566;2023-02-17T11:29:25;12.80;99.90
10492;DHT22;5293;51.464;-2.566;2023-02-17T11:32:09;12.70;99.90
10492;DHT22;5293;51.464;-2.566;2023-02-17T11:34:37;12.70;99.90
10492;DHT22;5293;51.464;-2.566;2023-02-17T11:39:44;12.70;99.90
10492;DHT22;5293;51.464;-2.566;2023-02-17T11:42:23;12.70;99.90
10492;DHT22;5293;51.464;-2.566;2023-02-17T11:44:50;12.80;99.90
10492;DHT22;5293;51.464;-2.566;2023-02-17T11:58:04;13.00;99.90
10492;DHT22;5293;51.464;-2.566;2023-02-17T12:00:51;13.10;99.90
10492;DHT22;5293;51.464;-2.566;2023-02-17T12:06:43;13.00;99.90
10492;DHT22;5293;51.464;-2.566;2023-02-17T12:14:57;13.10;99.90
10492;DHT22;5293;51.464;-2.566;2023-02-17T12:29:02;13.20;99.90
10492;DHT22;5293;51.464;-2.566;2023-02-17T12:34:28;13.10;99.90
10492;DHT22;5293;51.464;-2.566;2023-02-17T12:36:56;13.10;99.90
10492;DHT22;5293;51.464;-2.566;2023-02-17T12:42:06;13.10;99.90
10492;DHT22;5293;51.464;-2.566;2023-02-17T12:44:38;13.00;99.90
10492;DHT22;5293;51.464;-2.566;2023-02-17T12:47:27;13.00;99.90
10492;DHT22;5293;51.464;-2.566;2023-02-17T12:50:17;13.00;99.90
10492;DHT22;5293;51.464;-2.566;2023-02-17T12:52:49;13.00;99.90
10492;DHT22;5293;51.464;-2.566;2023-02-17T12:55:17;13.00;99.90
10492;DHT22;5293;51.464;-2.566;2023-02-17T12:57:56;13.10;99.90
10492;DHT22;5293;51.464;-2.566;2023-02-17T13:00:40;13.10;99.90
10492;DHT22;5293;51.464;-2.566;2023-02-17T13:03:07;13.10;99.90
10492;DHT22;5293;51.464;-2.566;2023-02-17T13:08:20;13.10;99.90
10492;DHT22;5293;51.464;-2.566;2023-02-17T13:11:02;13.10;99.90
10492;DHT22;5293;51.464;-2.566;2023-02-17T13:13:30;13.00;99.90
10492;DHT22;5293;51.464;-2.566;2023-02-17T13:16:11;12.90;99.90
10492;DHT22;5293;51.464;-2.566;2023-02-17T13:18:39;12.80;99.90
10492;DHT22;5293;51.464;-2.566;2023-02-17T13:24:04;12.70;99.90
10492;DHT22;5293;51.464;-2.566;2023-02-17T13:26:36;12.70;99.90
10492;DHT22;5293;51.464;-2.566;2023-02-17T13:32:00;12.60;99.90
10492;DHT22;5293;51.464;-2.566;2023-02-17T13:34:37;12.60;99.90
10492;DHT22;5293;51.464;-2.566;2023-02-17T13:37:36;12.60;99.90
10492;DHT22;5293;51.464;-2.566;2023-02-17T13:43:16;12.70;99.90
10492;DHT22;5293;51.464;-2.566;2023-02-17T13:45:47;12.70;99.90
10492;DHT22;5293;51.464;-2.566;2023-02-17T13:50:57;12.60;99.90
10492;DHT22;5293;51.464;-2.566;2023-02-17T13:55:54;12.60;99.90
10492;DHT22;5293;51.464;-2.566;2023-02-17T13:58:23;12.70;99.90
10492;DHT22;5293;51.464;-2.566;2023-02-17T14:00:49;12.70;99.90
10492;DHT22;5293;51.464;-2.566;2023-02-17T14:03:20;12.60;99.90
10492;DHT22;5293;51.464;-2.566;2023-02-17T14:05:47;12.70;99.90
10492;DHT22;5293;51.464;-2.566;2023-02-17T14:10:43;12.70;99.90
10492;DHT22;5293;51.464;-2.566;2023-02-17T14:13:12;12.70;99.90
10492;DHT22;5293;51.464;-2.566;2023-02-17T14:15:55;12.70;99.90
10492;DHT22;5293;51.464;-2.566;2023-02-17T14:18:40;12.70;99.90
10492;DHT22;5293;51.464;-2.566;2023-02-17T14:21:12;12.70;99.90
10492;DHT22;5293;51.464;-2.566;2023-02-17T14:23:53;12.70;99.90
10492;DHT22;5293;51.464;-2.566;2023-02-17T14:26:48;12.70;99.90
10492;DHT22;5293;51.464;-2.566;2023-02-17T14:29:14;12.70;99.90
10492;DHT22;5293;51.464;-2.566;2023-02-17T14:31:45;12.70;99.90
10492;DHT22;5293;51.464;-2.566;2023-02-17T14:34:28;12.70;99.90
10492;DHT22;5293;51.464;-2.566;2023-02-17T14:37:06;12.80;99.90
10492;DHT22;5293;51.464;-2.566;2023-02-17T14:39:32;12.70;99.90
10492;DHT22;5293;51.464;-2.566;2023-02-17T14:41:58;12.80;99.90
10492;DHT22;5293;51.464;-2.566;2023-02-17T14:44:24;12.90;99.90
10492;DHT22;5293;51.464;-2.566;2023-02-17T14:46:49;12.90;99.90
10492;DHT22;5293;51.464;-2.566;2023-02-17T14:49:15;12.90;99.90
10492;DHT22;5293;51.464;-2.566;2023-02-17T14:51:40;13.00;99.90
10492;DHT22;5293;51.464;-2.566;2023-02-17T14:54:14;13.00;99.90
10492;DHT22;5293;51.464;-2.566;2023-02-17T14:56:45;13.10;99.90
10492;DHT22;5293;51.464;-2.566;2023-02-17T14:59:12;13.10;99.90
10492;DHT22;5293;51.464;-2.566;2023-02-17T15:01:38;13.10;99.90
10492;DHT22;5293;51.464;-2.566;2023-02-17T15:04:03;13.10;99.90
10492;DHT22;5293;51.464;-2.566;2023-02-17T15:06:43;13.00;99.90
10492;DHT22;5293;51.464;-2.566;2023-02-17T15:09:14;13.00;99.90
10492;DHT22;5293;51.464;-2.566;2023-02-17T15:11:41;13.00;99.90
10492;DHT22;5293;51.464;-2.566;2023-02-17T15:14:15;13.00;99.90
10492;DHT22;5293;51.464;-2.566;2023-02-17T15:16:42;12.90;99.90
10492;DHT22;5293;51.464;-2.566;2023-02-17T15:19:09;12.90;99.90
10492;DHT22;5293;51.464;-2.566;2023-02-17T15:21:36;12.80;99.90
10492;DHT22;5293;51.464;-2.566;2023-02-17T15:24:04;12.70;99.90
10492;DHT22;5293;51.464;-2.566;2023-02-17T15:26:37;12.60;99.90
10492;DHT22;5293;51.464;-2.566;2023-02-17T15:29:02;12.60;99.90
10492;DHT22;5293;51.464;-2.566;2023-02-17T15:31:31;12.60;99.90
10492;DHT22;5293;51.464;-2.566;2023-02-17T15:33:58;12.60;99.90
10492;DHT22;5293;51.464;-2.566;2023-02-17T15:36:25;12.50;99.90
10492;DHT22;5293;51.464;-2.566;2023-02-17T15:38:52;12.50;99.90
10492;DHT22;5293;51.464;-2.566;2023-02-17T15:41:26;12.50;99.90
10492;DHT22;5293;51.464;-2.566;2023-02-17T15:43:53;12.50;99.90
10492;DHT22;5293;51.464;-2.566;2023-02-17T15:46:24;12.60;99.90
10492;DHT22;5293;51.464;-2.566;2023-02-17T15:48:50;12.50;99.90
10492;DHT22;5293;51.464;-2.566;2023-02-17T15:51:18;12.50;99.90
10492;DHT22;5293;51.464;-2.566;2023-02-17T15:53:44;12.40;99.90
10492;DHT22;5293;51.464;-2.566;2023-02-17T15:56:13;12.40;99.90
10492;DHT22;5293;51.464;-2.566;2023-02-17T15:58:40;12.40;99.90
10492;DHT22;5293;51.464;-2.566;2023-02-17T16:01:15;12.40;99.90
10492;DHT22;5293;51.464;-2.566;2023-02-17T16:03:42;12.30;99.90
10492;DHT22;5293;51.464;-2.566;2023-02-17T16:06:08;12.30;99.90
10492;DHT22;5293;51.464;-2.566;2023-02-17T16:08:33;12.30;99.90
10492;DHT22;5293;51.464;-2.566;2023-02-17T16:10:59;12.30;99.90
10492;DHT22;5293;51.464;-2.566;2023-02-17T16:13:25;12.30;99.90
10492;DHT22;5293;51.464;-2.566;2023-02-17T16:15:54;12.20;99.90
10492;DHT22;5293;51.464;-2.566;2023-02-17T16:18:23;12.20;99.90
10492;DHT22;5293;51.464;-2.566;2023-02-17T16:20:49;12.30;99.90
10492;DHT22;5293;51.464;-2.566;2023-02-17T16:23:15;12.30;99.90
10492;DHT22;5293;51.464;-2.566;2023-02-17T16:25:43;12.30;99.90
10492;DHT22;5293;51.464;-2.566;2023-02-17T16:28:15;12.30;99.90
10492;DHT22;5293;51.464;-2.566;2023-02-17T16:30:41;12.20;99.90
10492;DHT22;5293;51.464;-2.566;2023-02-17T16:33:09;12.20;99.90
10492;DHT22;5293;51.464;-2.566;2023-02-17T16:35:34;12.20;99.90
10492;DHT22;5293;51.464;-2.566;2023-02-17T16:38:17;12.20;99.90
10492;DHT22;5293;51.464;-2.566;2023-02-17T16:40:47;12.20;99.90
10492;DHT22;5293;51.464;-2.566;2023-02-17T16:43:15;12.20;99.90
10492;DHT22;5293;51.464;-2.566;2023-02-17T16:45:56;12.20;99.90
10492;DHT22;5293;51.464;-2.566;2023-02-17T16:48:24;12.10;99.90
10492;DHT22;5293;51.464;-2.566;2023-02-17T16:50:50;12.10;99.90
10492;DHT22;5293;51.464;-2.566;2023-02-17T16:53:15;12.10;99.90
10492;DHT22;5293;51.464;-2.566;2023-02-17T16:55:41;12.10;99.90
10492;DHT22;5293;51.464;-2.566;2023-02-17T16:58:16;12.20;99.90
10492;DHT22;5293;51.464;-2.566;2023-02-17T17:00:43;12.20;99.90
10492;DHT22;5293;51.464;-2.566;2023-02-17T17:03:09;12.20;99.90
10492;DHT22;5293;51.464;-2.566;2023-02-17T17:05:34;12.10;99.90
10492;DHT22;5293;51.464;-2.566;2023-02-17T17:08:01;12.10;99.90
10492;DHT22;5293;51.464;-2.566;2023-02-17T17:10:29;12.10;99.90
10492;DHT22;5293;51.464;-2.566;2023-02-17T17:12:56;12.00;99.90
10492;DHT22;5293;51.464;-2.566;2023-02-17T17:15:22;12.00;99.90
10492;DHT22;5293;51.464;-2.566;2023-02-17T17:18:00;12.10;99.90
10492;DHT22;5293;51.464;-2.566;2023-02-17T17:20:30;12.00;99.90